createdAt,value
2022-11-05T00:02:08.978Z,9.89
2022-11-05T00:04:57.922Z,9.89
2022-11-05T00:07:51.063Z,9.89
2022-11-05T00:10:24.671Z,9.90
2022-11-05T00:13:30.121Z,9.89
2022-11-05T00:16:30.083Z,9.88
2022-11-05T00:19:07.493Z,9.87
2022-11-05T00:21:57.721Z,9.87
2022-11-05T00:24:46.146Z,9.86
2022-11-05T00:27:17.005Z,9.87
2022-11-05T00:29:47.879Z,9.87
2022-11-05T00:32:19.368Z,9.88
2022-11-05T00:34:50.308Z,9.90
2022-11-05T00:37:21.135Z,9.90
2022-11-05T00:39:52.058Z,9.91
2022-11-05T00:42:40.718Z,9.90
2022-11-05T00:45:12.845Z,9.89
2022-11-05T00:48:02.241Z,9.88
2022-11-05T00:50:34.128Z,9.88
2022-11-05T00:53:05.409Z,9.87
2022-11-05T00:55:39.212Z,9.85
2022-11-05T00:58:12.437Z,9.83
2022-11-05T01:00:45.932Z,9.83
2022-11-05T01:03:19.771Z,9.84
2022-11-05T01:05:52.610Z,9.84
2022-11-05T01:08:24.885Z,9.83
2022-11-05T01:10:57.845Z,9.84
2022-11-05T01:13:30.777Z,9.83
2022-11-05T01:16:08.795Z,9.83
2022-11-05T01:18:40.853Z,9.83
2022-11-05T01:21:16.738Z,9.82
2022-11-05T01:23:47.613Z,9.81
2022-11-05T01:26:18.499Z,9.82
2022-11-05T01:28:53.468Z,9.81
2022-11-05T01:31:23.331Z,9.79
2022-11-05T01:33:54.168Z,9.78
2022-11-05T01:36:25.038Z,9.77
2022-11-05T01:38:55.849Z,9.75
2022-11-05T01:41:26.604Z,9.75
2022-11-05T01:44:00.112Z,9.74
2022-11-05T01:46:33.655Z,9.71
2022-11-05T01:49:14.824Z,9.69
2022-11-05T01:51:48.413Z,9.68
2022-11-05T01:54:23.292Z,9.68
2022-11-05T01:56:59.525Z,9.64
2022-11-05T01:59:35.991Z,9.62
2022-11-05T02:02:09.274Z,9.60
2022-11-05T02:04:46.287Z,9.59
2022-11-05T02:07:18.257Z,9.56
2022-11-05T02:09:54.600Z,9.54
2022-11-05T02:12:26.034Z,9.54
2022-11-05T02:14:57.119Z,9.54
2022-11-05T02:17:37.602Z,9.53
2022-11-05T02:20:27.171Z,9.51
2022-11-05T02:23:32.866Z,9.49
2022-11-05T02:26:26.671Z,9.48
2022-11-05T02:29:23.101Z,9.48
2022-11-05T02:32:04.302Z,9.49
2022-11-05T02:34:42.518Z,9.46
2022-11-05T02:37:26.582Z,9.46
2022-11-05T02:40:07.710Z,9.45
2022-11-05T02:42:46.580Z,9.43
2022-11-05T02:45:27.876Z,9.42
2022-11-05T02:48:08.939Z,9.42
2022-11-05T02:50:47.519Z,9.43
2022-11-05T02:53:29.336Z,9.43
2022-11-05T02:56:06.571Z,9.42
2022-11-05T02:58:37.760Z,9.40
2022-11-05T03:01:10.646Z,9.36
2022-11-05T03:03:44.602Z,9.34
2022-11-05T03:06:49.484Z,9.33
2022-11-05T03:09:44.959Z,9.30
2022-11-05T03:12:27.788Z,9.29
2022-11-05T03:15:09.275Z,9.27
2022-11-05T03:17:52.567Z,9.27
2022-11-05T03:20:30.692Z,9.27
2022-11-05T03:23:10.703Z,9.24
2022-11-05T03:25:46.036Z,9.23
2022-11-05T03:28:19.566Z,9.23
2022-11-05T03:30:53.570Z,9.22
2022-11-05T03:33:28.794Z,9.21
2022-11-05T03:36:00.099Z,9.22
2022-11-05T03:38:35.693Z,9.22
2022-11-05T03:41:11.078Z,9.24
2022-11-05T03:43:48.043Z,9.26
2022-11-05T03:46:24.106Z,9.25
2022-11-05T03:48:58.493Z,9.25
2022-11-05T03:51:39.911Z,9.23
2022-11-05T03:54:11.611Z,9.21
2022-11-05T03:56:47.676Z,9.21
2022-11-05T03:59:20.499Z,9.21
2022-11-05T04:01:52.427Z,9.18
2022-11-05T04:04:23.504Z,9.14
2022-11-05T04:07:20.314Z,9.12
2022-11-05T04:10:08.752Z,9.10
2022-11-05T04:12:57.529Z,9.08
2022-11-05T04:15:29.693Z,9.06
2022-11-05T04:18:00.505Z,9.03
2022-11-05T04:20:48.736Z,8.99
2022-11-05T04:23:37.388Z,8.96
2022-11-05T04:26:08.323Z,8.95
2022-11-05T04:28:52.956Z,8.94
2022-11-05T04:31:23.831Z,8.91
2022-11-05T04:33:54.742Z,8.90
2022-11-05T04:36:25.767Z,8.89
2022-11-05T04:38:56.696Z,8.90
2022-11-05T04:41:27.834Z,8.93
2022-11-05T04:43:58.673Z,8.95
2022-11-05T04:46:29.834Z,8.97
2022-11-05T04:49:00.687Z,8.97
2022-11-05T04:51:31.491Z,8.99
2022-11-05T04:54:02.393Z,9.00
2022-11-05T04:56:33.577Z,9.01
2022-11-05T04:59:04.458Z,9.01
2022-11-05T05:01:35.308Z,8.99
2022-11-05T05:04:06.300Z,8.94
2022-11-05T05:06:38.478Z,8.90
2022-11-05T05:09:09.322Z,8.87
2022-11-05T05:11:41.149Z,8.85
2022-11-05T05:14:12.599Z,8.82
2022-11-05T05:16:43.502Z,8.78
2022-11-05T05:19:14.279Z,8.74
2022-11-05T05:21:45.087Z,8.69
2022-11-05T05:24:18.775Z,8.63
2022-11-05T05:26:51.929Z,8.56
2022-11-05T05:29:22.703Z,8.53
2022-11-05T05:31:53.544Z,8.49
2022-11-05T05:34:24.373Z,8.45
2022-11-05T05:36:55.169Z,8.41
2022-11-05T05:39:27.033Z,8.36
2022-11-05T05:41:57.855Z,8.34
2022-11-05T05:44:28.721Z,8.33
2022-11-05T05:46:59.560Z,8.33
2022-11-05T05:49:30.661Z,8.32
2022-11-05T05:52:01.419Z,8.31
2022-11-05T05:54:34.275Z,8.31
2022-11-05T05:57:08.090Z,8.30
2022-11-05T05:59:39.190Z,8.29
2022-11-05T06:02:10.974Z,8.27
2022-11-05T06:04:41.934Z,8.26
2022-11-05T06:07:12.726Z,8.27
2022-11-05T06:09:43.510Z,8.26
2022-11-05T06:12:14.340Z,8.24
2022-11-05T06:14:45.204Z,8.21
2022-11-05T06:17:16.056Z,8.20
2022-11-05T06:19:47.376Z,8.20
2022-11-05T06:22:18.167Z,8.21
2022-11-05T06:24:49.035Z,8.21
2022-11-05T06:27:19.848Z,8.23
2022-11-05T06:29:50.631Z,8.24
2022-11-05T06:32:21.450Z,8.26
2022-11-05T06:34:52.284Z,8.29
2022-11-05T06:37:23.061Z,8.29
2022-11-05T06:39:53.847Z,8.28
2022-11-05T06:42:25.408Z,8.27
2022-11-05T06:44:56.311Z,8.26
2022-11-05T06:47:27.060Z,8.25
2022-11-05T06:49:58.240Z,8.25
2022-11-05T06:52:31.380Z,8.23
2022-11-05T06:55:02.193Z,8.21
2022-11-05T06:57:33.341Z,8.21
2022-11-05T07:00:07.823Z,8.21
2022-11-05T07:02:39.013Z,8.22
2022-11-05T07:05:11.732Z,8.24
2022-11-05T07:07:43.221Z,8.26
2022-11-05T07:10:16.866Z,8.30
2022-11-05T07:12:47.651Z,8.34
2022-11-05T07:15:18.618Z,8.36
2022-11-05T07:17:49.917Z,8.39
2022-11-05T07:20:20.809Z,8.42
2022-11-05T07:22:51.646Z,8.44
2022-11-05T07:25:22.491Z,8.44
2022-11-05T07:27:53.624Z,8.45
2022-11-05T07:30:24.394Z,8.46
2022-11-05T07:32:55.166Z,8.46
2022-11-05T07:35:26.175Z,8.47
2022-11-05T07:37:57.631Z,8.48
2022-11-05T07:40:30.564Z,8.50
2022-11-05T07:43:02.567Z,8.52
2022-11-05T07:45:33.981Z,8.55
2022-11-05T07:48:06.049Z,8.58
2022-11-05T07:50:38.181Z,8.63
2022-11-05T07:53:12.120Z,8.66
2022-11-05T07:55:46.105Z,8.71
2022-11-05T07:58:16.981Z,8.76
2022-11-05T08:00:49.943Z,8.79
2022-11-05T08:03:21.970Z,8.82
2022-11-05T08:05:53.923Z,8.83
2022-11-05T08:08:25.145Z,8.83
2022-11-05T08:11:04.990Z,8.84
2022-11-05T08:13:37.760Z,8.87
2022-11-05T08:16:10.855Z,8.87
2022-11-05T08:18:42.900Z,8.91
2022-11-05T08:21:16.738Z,8.94
2022-11-05T08:23:48.630Z,8.99
2022-11-05T08:26:20.833Z,9.02
2022-11-05T08:28:52.071Z,9.04
2022-11-05T08:31:23.328Z,9.05
2022-11-05T08:33:59.680Z,9.08
2022-11-05T08:36:35.568Z,9.11
2022-11-05T08:39:06.637Z,9.13
2022-11-05T08:41:38.240Z,9.13
2022-11-05T08:44:12.422Z,9.13
2022-11-05T08:46:44.218Z,9.15
2022-11-05T08:49:15.269Z,9.20
2022-11-05T08:51:47.851Z,9.23
2022-11-05T08:54:18.741Z,9.24
2022-11-05T08:56:52.342Z,9.27
2022-11-05T08:59:25.130Z,9.30
2022-11-05T09:01:56.641Z,9.31
2022-11-05T09:04:28.069Z,9.34
2022-11-05T09:06:59.866Z,9.37
2022-11-05T09:09:32.950Z,9.40
2022-11-05T09:12:12.992Z,9.41
2022-11-05T09:14:44.910Z,9.43
2022-11-05T09:17:23.443Z,9.44
2022-11-05T09:19:54.717Z,9.47
2022-11-05T09:22:26.081Z,9.50
2022-11-05T09:24:58.767Z,9.53
2022-11-05T09:27:31.597Z,9.54
2022-11-05T09:30:02.660Z,9.57
2022-11-05T09:32:35.543Z,9.60
2022-11-05T09:35:10.825Z,9.63
2022-11-05T09:37:40.792Z,9.65
2022-11-05T09:40:19.591Z,9.64
2022-11-05T09:42:52.809Z,9.65
2022-11-05T09:45:28.260Z,9.67
2022-11-05T09:48:05.654Z,9.68
2022-11-05T09:50:41.440Z,9.71
2022-11-05T09:53:18.503Z,9.72
2022-11-05T09:55:56.850Z,9.72
2022-11-05T09:58:37.489Z,9.74
2022-11-05T10:01:13.528Z,9.75
2022-11-05T10:03:47.635Z,9.75
2022-11-05T10:06:24.091Z,9.77
2022-11-05T10:09:02.448Z,9.82
2022-11-05T10:11:38.372Z,9.88
2022-11-05T10:14:18.348Z,9.90
2022-11-05T10:16:54.251Z,9.92
2022-11-05T10:19:27.974Z,9.93
2022-11-05T10:22:10.894Z,9.94
2022-11-05T10:24:46.533Z,9.96
2022-11-05T10:27:21.261Z,9.97
2022-11-05T10:29:54.081Z,9.98
2022-11-05T10:32:40.247Z,9.98
2022-11-05T10:35:18.551Z,9.99
2022-11-05T10:37:53.770Z,10.00
2022-11-05T10:40:29.491Z,10.01
2022-11-05T10:43:07.433Z,10.03
2022-11-05T10:45:47.535Z,10.03
2022-11-05T10:48:43.866Z,10.03
2022-11-05T10:51:16.263Z,10.03
2022-11-05T10:54:01.345Z,10.02
2022-11-05T10:56:36.999Z,10.02
2022-11-05T10:59:23.407Z,10.04
2022-11-05T11:02:04.604Z,10.07
2022-11-05T11:04:38.050Z,10.11
2022-11-05T11:07:23.510Z,10.14
2022-11-05T11:09:55.109Z,10.16
2022-11-05T11:12:29.005Z,10.18
2022-11-05T11:15:15.236Z,10.19
2022-11-05T11:17:46.587Z,10.19
2022-11-05T11:20:30.185Z,10.19
2022-11-05T11:23:12.537Z,10.18
2022-11-05T11:25:51.483Z,10.17
2022-11-05T11:28:29.870Z,10.17
2022-11-05T11:31:07.977Z,10.19
2022-11-05T11:33:45.804Z,10.20
2022-11-05T11:36:19.706Z,10.23
2022-11-05T11:38:50.738Z,10.25
2022-11-05T11:41:31.110Z,10.26
2022-11-05T11:44:07.583Z,10.28
2022-11-05T11:46:39.195Z,10.29
2022-11-05T11:49:35.107Z,10.27
2022-11-05T11:52:11.874Z,10.28
2022-11-05T11:54:43.464Z,10.30
2022-11-05T11:57:25.821Z,10.32
2022-11-05T12:00:09.455Z,10.30
2022-11-05T12:03:02.271Z,10.30
2022-11-05T12:05:51.569Z,10.31
2022-11-05T12:08:58.216Z,10.32
2022-11-05T12:11:40.554Z,10.32
2022-11-05T12:14:23.839Z,10.33
2022-11-05T12:17:32.570Z,10.33
2022-11-05T12:20:41.988Z,10.32
2022-11-05T12:23:43.154Z,10.34
2022-11-05T12:26:24.953Z,10.36
2022-11-05T12:29:20.032Z,10.39
2022-11-05T12:32:12.106Z,10.44
2022-11-05T12:34:54.284Z,10.48
2022-11-05T12:37:33.695Z,10.52
2022-11-05T12:40:35.292Z,10.58
2022-11-05T12:43:18.415Z,10.66
2022-11-05T12:45:56.890Z,10.71
2022-11-05T12:48:46.640Z,10.73
2022-11-05T12:51:35.262Z,10.72
2022-11-05T12:54:21.239Z,10.69
2022-11-05T12:56:58.049Z,10.65
2022-11-05T12:59:36.121Z,10.63
2022-11-05T13:02:18.009Z,10.60
2022-11-05T13:04:53.258Z,10.59
2022-11-05T13:07:25.174Z,10.59
2022-11-05T13:10:01.067Z,10.55
2022-11-05T13:12:39.229Z,10.54
2022-11-05T13:15:23.000Z,10.50
2022-11-05T13:17:58.526Z,10.47
2022-11-05T13:20:34.209Z,10.44
2022-11-05T13:23:14.267Z,10.41
2022-11-05T13:25:53.819Z,10.39
2022-11-05T13:28:37.119Z,10.41
2022-11-05T13:31:15.252Z,10.44
2022-11-05T13:33:48.492Z,10.46
2022-11-05T13:36:41.347Z,10.49
2022-11-05T13:39:19.474Z,10.52
2022-11-05T13:42:23.553Z,10.54
2022-11-05T13:45:30.132Z,10.56
2022-11-05T13:48:26.576Z,10.55
2022-11-05T13:51:36.158Z,10.55
2022-11-05T13:54:49.096Z,10.52
2022-11-05T13:57:44.595Z,10.52
2022-11-05T14:00:20.168Z,10.52
2022-11-05T14:02:55.359Z,10.53
2022-11-05T14:05:35.387Z,10.50
2022-11-05T14:08:15.095Z,10.49
2022-11-05T14:10:57.924Z,10.45
2022-11-05T14:13:36.596Z,10.39
2022-11-05T14:16:11.639Z,10.34
2022-11-05T14:18:46.499Z,10.32
2022-11-05T14:21:47.546Z,10.29
2022-11-05T14:24:44.417Z,10.25
2022-11-05T14:27:44.591Z,10.19
2022-11-05T14:30:47.305Z,10.15
2022-11-05T14:33:33.250Z,10.13
2022-11-05T14:36:32.395Z,10.12
2022-11-05T14:39:19.540Z,10.10
2022-11-05T14:42:01.948Z,10.07
2022-11-05T14:44:34.903Z,10.05
2022-11-05T14:47:09.034Z,10.03
2022-11-05T14:49:53.080Z,10.02
2022-11-05T14:52:25.018Z,9.99
2022-11-05T14:54:58.955Z,9.96
2022-11-05T14:58:06.050Z,9.96
2022-11-05T15:00:52.011Z,9.94
2022-11-05T15:04:07.020Z,9.96
2022-11-05T15:06:38.566Z,9.96
2022-11-05T15:09:30.902Z,9.97
2022-11-05T15:12:10.185Z,10.00
2022-11-05T15:14:51.509Z,10.02
2022-11-05T15:17:30.156Z,10.03
2022-11-05T15:20:16.721Z,10.03
2022-11-05T15:22:52.803Z,10.03
2022-11-05T15:25:28.133Z,10.03
2022-11-05T15:28:08.356Z,10.04
2022-11-05T15:30:39.565Z,10.06
2022-11-05T15:33:21.494Z,10.07
2022-11-05T15:35:52.428Z,10.06
2022-11-05T15:38:34.157Z,10.07
2022-11-05T15:41:07.677Z,10.07
2022-11-05T15:43:48.089Z,10.08
2022-11-05T15:46:22.181Z,10.09
2022-11-05T15:48:55.267Z,10.11
2022-11-05T15:51:27.802Z,10.13
2022-11-05T15:54:28.637Z,10.15
2022-11-05T15:56:55.911Z,10.17
2022-11-05T15:59:29.801Z,10.16
2022-11-05T16:02:07.041Z,10.17
2022-11-05T16:04:38.485Z,10.17
2022-11-05T16:07:13.260Z,10.17
2022-11-05T16:09:59.006Z,10.17
2022-11-05T16:12:40.509Z,10.18
2022-11-05T16:15:26.715Z,10.20
2022-11-05T16:17:59.805Z,10.25
2022-11-05T16:20:34.271Z,10.30
2022-11-05T16:23:07.980Z,10.36
2022-11-05T16:25:44.118Z,10.40
2022-11-05T16:28:25.745Z,10.46
2022-11-05T16:31:03.254Z,10.50
2022-11-05T16:33:44.826Z,10.53
2022-11-05T16:36:15.797Z,10.57
2022-11-05T16:38:47.651Z,10.60
2022-11-05T16:41:20.407Z,10.61
2022-11-05T16:43:56.508Z,10.61
2022-11-05T16:46:29.697Z,10.61
2022-11-05T16:49:02.990Z,10.61
2022-11-05T16:51:34.564Z,10.61
2022-11-05T16:54:06.154Z,10.62
2022-11-05T16:56:38.039Z,10.64
2022-11-05T16:59:12.314Z,10.64
2022-11-05T17:01:45.223Z,10.64
2022-11-05T17:04:16.324Z,10.65
2022-11-05T17:06:50.165Z,10.65
2022-11-05T17:09:21.519Z,10.66
2022-11-05T17:11:52.778Z,10.65
2022-11-05T17:14:23.718Z,10.66
2022-11-05T17:16:54.814Z,10.66
2022-11-05T17:19:29.347Z,10.67
2022-11-05T17:22:08.185Z,10.67
2022-11-05T17:24:39.706Z,10.68
2022-11-05T17:27:10.989Z,10.69
2022-11-05T17:29:42.308Z,10.71
2022-11-05T17:32:13.362Z,10.72
2022-11-05T17:34:45.159Z,10.71
2022-11-05T17:37:16.112Z,10.72
2022-11-05T17:39:47.022Z,10.73
2022-11-05T17:42:18.267Z,10.74
2022-11-05T17:44:50.011Z,10.75
2022-11-05T17:47:21.825Z,10.77
2022-11-05T17:49:53.199Z,10.77
2022-11-05T17:52:24.515Z,10.78
2022-11-05T17:54:55.476Z,10.80
2022-11-05T17:57:30.046Z,10.82
2022-11-05T18:00:05.302Z,10.83
2022-11-05T18:02:42.070Z,10.84
2022-11-05T18:05:16.276Z,10.84
2022-11-05T18:07:51.941Z,10.86
2022-11-05T18:10:23.467Z,10.87
2022-11-05T18:12:55.251Z,10.89
2022-11-05T18:15:30.697Z,10.91
2022-11-05T18:18:02.084Z,10.92
2022-11-05T18:20:34.174Z,10.94
2022-11-05T18:23:05.584Z,10.96
2022-11-05T18:25:36.596Z,10.97
2022-11-05T18:28:07.978Z,10.98
2022-11-05T18:30:40.827Z,11.00
2022-11-05T18:33:12.086Z,11.01
2022-11-05T18:35:46.427Z,11.02
2022-11-05T18:38:17.516Z,11.02
2022-11-05T18:40:48.445Z,11.01
2022-11-05T18:43:19.540Z,11.00
2022-11-05T18:45:57.697Z,10.98
2022-11-05T18:48:28.581Z,10.98
2022-11-05T18:51:02.030Z,10.97
2022-11-05T18:53:33.530Z,10.95
2022-11-05T18:56:10.247Z,10.93
2022-11-05T18:58:43.023Z,10.91
2022-11-05T19:01:18.267Z,10.88
2022-11-05T19:03:51.268Z,10.88
2022-11-05T19:06:22.493Z,10.86
2022-11-05T19:08:53.946Z,10.84
2022-11-05T19:11:26.506Z,10.82
2022-11-05T19:13:57.637Z,10.80
2022-11-05T19:16:30.740Z,10.79
2022-11-05T19:19:03.261Z,10.77
2022-11-05T19:21:34.691Z,10.75
2022-11-05T19:24:06.639Z,10.74
2022-11-05T19:26:37.617Z,10.73
2022-11-05T19:29:08.835Z,10.71
2022-11-05T19:31:39.997Z,10.71
2022-11-05T19:34:11.457Z,10.70
2022-11-05T19:36:43.541Z,10.68
2022-11-05T19:39:16.566Z,10.68
2022-11-05T19:41:49.387Z,10.67
2022-11-05T19:44:20.287Z,10.65
2022-11-05T19:46:51.371Z,10.65
2022-11-05T19:49:22.247Z,10.65
2022-11-05T19:51:53.074Z,10.65
2022-11-05T19:54:24.074Z,10.66
2022-11-05T19:56:56.759Z,10.65
2022-11-05T19:59:35.507Z,10.65
2022-11-05T20:02:13.292Z,10.65
2022-11-05T20:04:47.278Z,10.67
2022-11-05T20:07:20.597Z,10.68
2022-11-05T20:09:51.439Z,10.67
2022-11-05T20:12:22.550Z,10.68
2022-11-05T20:14:53.749Z,10.67
2022-11-05T20:17:24.840Z,10.67
2022-11-05T20:19:56.502Z,10.68
2022-11-05T20:22:27.390Z,10.68
2022-11-05T20:24:58.629Z,10.69
2022-11-05T20:27:30.016Z,10.67
2022-11-05T20:30:01.098Z,10.67
2022-11-05T20:32:32.038Z,10.65
2022-11-05T20:35:03.299Z,10.66
2022-11-05T20:37:34.607Z,10.65
2022-11-05T20:40:06.972Z,10.66
2022-11-05T20:42:39.624Z,10.67
2022-11-05T20:45:11.876Z,10.67
2022-11-05T20:47:43.765Z,10.67
2022-11-05T20:50:14.615Z,10.68
2022-11-05T20:52:45.483Z,10.68
2022-11-05T20:55:16.610Z,10.68
2022-11-05T20:57:47.514Z,10.69
2022-11-05T21:00:19.881Z,10.68
2022-11-05T21:02:51.123Z,10.66
2022-11-05T21:05:22.448Z,10.66
2022-11-05T21:07:53.568Z,10.67
2022-11-05T21:10:26.282Z,10.67
2022-11-05T21:12:57.450Z,10.68
2022-11-05T21:15:28.562Z,10.66
2022-11-05T21:18:00.649Z,10.66
2022-11-05T21:20:32.093Z,10.65
2022-11-05T21:23:03.178Z,10.64
2022-11-05T21:25:34.441Z,10.64
2022-11-05T21:28:05.544Z,10.65
2022-11-05T21:30:37.588Z,10.66
2022-11-05T21:33:09.296Z,10.67
2022-11-05T21:35:44.976Z,10.68
2022-11-05T21:38:17.807Z,10.69
2022-11-05T21:40:48.865Z,10.68
2022-11-05T21:43:19.930Z,10.68
2022-11-05T21:45:50.955Z,10.68
2022-11-05T21:48:22.159Z,10.68
2022-11-05T21:51:12.556Z,10.69
2022-11-05T21:54:01.582Z,10.67
2022-11-05T21:56:50.886Z,10.67
2022-11-05T21:59:41.421Z,10.65
2022-11-05T22:02:14.928Z,10.65
2022-11-05T22:04:47.969Z,10.65
2022-11-05T22:07:21.472Z,10.66
2022-11-05T22:09:53.180Z,10.66
2022-11-05T22:12:25.587Z,10.66
2022-11-05T22:14:57.165Z,10.64
2022-11-05T22:17:28.745Z,10.65
2022-11-05T22:19:59.684Z,10.64
2022-11-05T22:22:30.831Z,10.65
2022-11-05T22:25:02.216Z,10.65
2022-11-05T22:27:33.276Z,10.63
2022-11-05T22:30:04.893Z,10.62
2022-11-05T22:32:35.880Z,10.60
2022-11-05T22:35:08.496Z,10.57
2022-11-05T22:37:39.438Z,10.56
2022-11-05T22:40:12.968Z,10.56
2022-11-05T22:42:43.866Z,10.56
2022-11-05T22:45:15.166Z,10.55
2022-11-05T22:47:46.506Z,10.54
2022-11-05T22:50:17.591Z,10.55
2022-11-05T22:52:48.693Z,10.55
2022-11-05T22:55:19.698Z,10.55
2022-11-05T22:57:50.686Z,10.55
2022-11-05T23:00:22.800Z,10.56
2022-11-05T23:02:54.375Z,10.55
2022-11-05T23:05:25.795Z,10.53
2022-11-05T23:08:14.357Z,10.53
2022-11-05T23:11:03.804Z,10.52
2022-11-05T23:13:35.257Z,10.52
2022-11-05T23:16:24.326Z,10.50
2022-11-05T23:19:12.782Z,10.49
2022-11-05T23:22:01.682Z,10.49
2022-11-05T23:24:32.954Z,10.47
2022-11-05T23:27:04.474Z,10.45
2022-11-05T23:29:35.956Z,10.44
2022-11-05T23:32:25.378Z,10.45
2022-11-05T23:34:58.306Z,10.43
2022-11-05T23:37:51.547Z,10.41
2022-11-05T23:40:25.811Z,10.37
2022-11-05T23:43:15.384Z,10.34
2022-11-05T23:46:05.234Z,10.30
2022-11-05T23:48:38.503Z,10.27
2022-11-05T23:51:12.460Z,10.23
2022-11-05T23:53:44.455Z,10.21
2022-11-05T23:56:16.727Z,10.18
2022-11-05T23:58:48.835Z,10.16
